createdAt,value
2018-11-29T00:02:25.911Z,7.30
2018-11-29T00:04:53.460Z,7.40
2018-11-29T00:07:21.021Z,7.40
2018-11-29T00:09:48.583Z,7.40
2018-11-29T00:12:16.147Z,7.40
2018-11-29T00:14:43.687Z,7.40
2018-11-29T00:17:11.254Z,7.50
2018-11-29T00:19:38.776Z,7.50
2018-11-29T00:22:06.595Z,7.60
2018-11-29T00:24:34.163Z,7.60
2018-11-29T00:27:01.727Z,7.60
2018-11-29T00:29:29.279Z,7.50
2018-11-29T00:31:56.852Z,7.50
2018-11-29T00:34:24.407Z,7.50
2018-11-29T00:36:52.003Z,7.50
2018-11-29T00:39:19.535Z,7.50
2018-11-29T00:41:47.133Z,7.50
2018-11-29T00:44:14.722Z,7.50
2018-11-29T00:46:42.311Z,7.50
2018-11-29T00:49:09.856Z,7.50
2018-11-29T00:51:37.454Z,7.50
2018-11-29T00:54:05.064Z,7.50
2018-11-29T00:56:32.628Z,7.50
2018-11-29T00:59:00.224Z,7.50
2018-11-29T01:01:27.768Z,7.50
2018-11-29T01:03:55.394Z,7.50
2018-11-29T01:06:22.919Z,7.50
2018-11-29T01:08:50.499Z,7.40
2018-11-29T01:11:18.031Z,7.50
2018-11-29T01:13:46.559Z,7.50
2018-11-29T01:16:14.112Z,7.50
2018-11-29T01:18:41.674Z,7.50
2018-11-29T01:21:09.397Z,7.40
2018-11-29T01:23:36.967Z,7.50
2018-11-29T01:26:04.911Z,7.30
2018-11-29T01:28:32.523Z,7.50
2018-11-29T01:31:00.079Z,7.40
2018-11-29T01:33:27.899Z,7.50
2018-11-29T01:35:55.468Z,7.50
2018-11-29T01:38:23.052Z,7.50
2018-11-29T01:40:50.611Z,7.50
2018-11-29T01:43:18.205Z,7.50
2018-11-29T01:45:45.767Z,7.50
2018-11-29T01:48:13.343Z,7.50
2018-11-29T01:50:40.896Z,7.50
2018-11-29T01:53:08.486Z,7.40
2018-11-29T01:55:36.040Z,7.50
2018-11-29T01:58:03.663Z,7.50
2018-11-29T02:00:31.220Z,7.50
2018-11-29T02:02:58.815Z,7.60
2018-11-29T02:05:26.351Z,7.50
2018-11-29T02:07:53.924Z,7.50
2018-11-29T02:10:26.035Z,7.50
2018-11-29T02:12:54.083Z,7.50
2018-11-29T02:15:21.720Z,7.50
2018-11-29T02:17:49.308Z,7.50
2018-11-29T02:20:17.582Z,7.50
2018-11-29T02:22:45.476Z,7.50
2018-11-29T02:25:13.247Z,7.60
2018-11-29T02:27:40.882Z,7.60
2018-11-29T02:30:17.557Z,7.60
2018-11-29T02:32:45.501Z,7.60
2018-11-29T02:35:13.298Z,7.70
2018-11-29T02:37:40.923Z,7.70
2018-11-29T02:40:11.253Z,7.60
2018-11-29T02:42:39.123Z,7.70
2018-11-29T02:45:08.824Z,7.70
2018-11-29T02:47:36.408Z,7.70
2018-11-29T02:50:03.983Z,7.80
2018-11-29T02:52:31.549Z,7.70
2018-11-29T02:54:59.112Z,7.80
2018-11-29T02:57:26.660Z,7.70
2018-11-29T02:59:54.240Z,7.80
2018-11-29T03:02:21.783Z,7.80
2018-11-29T03:04:49.411Z,7.80
2018-11-29T03:07:16.958Z,7.90
2018-11-29T03:09:44.552Z,7.80
2018-11-29T03:12:12.111Z,7.80
2018-11-29T03:14:39.692Z,7.90
2018-11-29T03:17:07.252Z,7.80
2018-11-29T03:19:35.741Z,7.80
2018-11-29T03:22:03.308Z,7.90
2018-11-29T03:24:31.972Z,7.90
2018-11-29T03:26:59.548Z,7.90
2018-11-29T03:29:27.107Z,7.80
2018-11-29T03:31:54.667Z,7.80
2018-11-29T03:34:22.624Z,7.80
2018-11-29T03:36:50.192Z,7.80
2018-11-29T03:39:17.759Z,7.80
2018-11-29T03:41:45.323Z,7.80
2018-11-29T03:44:12.896Z,7.80
2018-11-29T03:46:40.451Z,7.80
2018-11-29T03:49:08.828Z,7.80
2018-11-29T03:51:36.380Z,7.80
2018-11-29T03:54:04.416Z,7.80
2018-11-29T03:56:31.983Z,7.80
2018-11-29T03:58:59.559Z,7.80
2018-11-29T04:01:27.123Z,7.80
2018-11-29T04:03:54.752Z,7.80
2018-11-29T04:06:24.123Z,7.90
2018-11-29T04:08:51.721Z,7.80
2018-11-29T04:11:19.303Z,7.80
2018-11-29T04:13:46.908Z,7.90
2018-11-29T04:16:14.528Z,7.90
2018-11-29T04:18:42.114Z,7.90
2018-11-29T04:21:09.671Z,7.90
2018-11-29T04:23:37.257Z,7.90
2018-11-29T04:26:05.431Z,7.90
2018-11-29T04:28:32.995Z,7.90
2018-11-29T04:31:00.793Z,7.90
2018-11-29T04:33:29.234Z,8.00
2018-11-29T04:35:59.463Z,7.90
2018-11-29T04:38:30.070Z,7.90
2018-11-29T04:40:59.765Z,7.80
2018-11-29T04:43:27.371Z,7.90
2018-11-29T04:46:06.355Z,7.90
2018-11-29T04:48:33.914Z,7.90
2018-11-29T04:51:01.481Z,7.90
2018-11-29T04:53:29.956Z,7.90
2018-11-29T04:55:58.427Z,7.80
2018-11-29T04:58:25.980Z,7.80
2018-11-29T05:00:53.579Z,7.80
2018-11-29T05:03:22.928Z,7.80
2018-11-29T05:05:50.496Z,7.80
2018-11-29T05:08:18.043Z,7.90
2018-11-29T05:10:45.639Z,7.90
2018-11-29T05:13:13.222Z,7.90
2018-11-29T05:15:40.804Z,7.80
2018-11-29T05:18:08.363Z,7.80
2018-11-29T05:20:35.988Z,7.90
2018-11-29T05:23:03.607Z,7.90
2018-11-29T05:25:31.315Z,7.90
2018-11-29T05:27:58.880Z,7.90
2018-11-29T05:30:26.525Z,7.90
2018-11-29T05:32:57.991Z,7.90
2018-11-29T05:35:25.585Z,8.00
2018-11-29T05:37:53.182Z,7.90
2018-11-29T05:40:20.942Z,7.80
2018-11-29T05:42:48.495Z,7.80
2018-11-29T05:45:16.071Z,7.90
2018-11-29T05:47:44.244Z,7.90
2018-11-29T05:50:11.907Z,7.80
2018-11-29T05:52:39.779Z,7.80
2018-11-29T05:55:09.638Z,7.80
2018-11-29T05:57:37.236Z,7.70
2018-11-29T06:00:07.598Z,7.70
2018-11-29T06:02:35.165Z,7.70
2018-11-29T06:05:03.739Z,7.70
2018-11-29T06:07:31.355Z,7.70
2018-11-29T06:10:00.105Z,7.80
2018-11-29T06:12:27.668Z,7.80
2018-11-29T06:14:55.228Z,7.80
2018-11-29T06:17:23.011Z,7.80
2018-11-29T06:19:50.591Z,7.80
2018-11-29T06:22:18.160Z,7.80
2018-11-29T06:24:47.385Z,7.90
2018-11-29T06:27:14.933Z,7.90
2018-11-29T06:29:42.490Z,8.00
2018-11-29T06:32:10.072Z,8.00
2018-11-29T06:34:37.684Z,8.00
2018-11-29T06:37:05.297Z,8.00
2018-11-29T06:39:34.718Z,8.00
2018-11-29T06:42:01.456Z,8.10
2018-11-29T06:44:29.015Z,8.10
2018-11-29T06:46:56.600Z,8.10
2018-11-29T06:49:24.375Z,8.10
2018-11-29T06:55:23.199Z,8.10
2018-11-29T06:57:51.244Z,8.10
2018-11-29T07:00:25.379Z,8.10
2018-11-29T07:02:52.994Z,8.00
2018-11-29T07:05:20.603Z,8.00
2018-11-29T07:07:48.156Z,8.00
2018-11-29T07:10:15.839Z,7.90
2018-11-29T07:12:43.373Z,7.90
2018-11-29T07:15:11.983Z,7.80
2018-11-29T07:17:40.603Z,7.80
2018-11-29T07:20:10.772Z,7.80
2018-11-29T07:22:38.367Z,7.70
2018-11-29T07:25:06.620Z,7.70
2018-11-29T07:27:34.319Z,7.70
2018-11-29T07:30:01.896Z,7.70
2018-11-29T07:32:29.467Z,7.70
2018-11-29T07:34:57.020Z,7.70
2018-11-29T07:37:27.635Z,7.70
2018-11-29T07:39:55.307Z,7.70
2018-11-29T07:42:22.924Z,7.70
2018-11-29T07:44:50.496Z,7.70
2018-11-29T07:47:18.088Z,7.70
2018-11-29T07:49:45.639Z,7.80
2018-11-29T07:52:13.212Z,7.80
2018-11-29T07:54:40.775Z,7.80
2018-11-29T07:57:08.348Z,7.80
2018-11-29T07:59:35.945Z,7.80
2018-11-29T08:02:03.540Z,7.90
2018-11-29T08:04:31.072Z,7.90
2018-11-29T08:06:58.663Z,8.00
2018-11-29T08:09:26.924Z,8.00
2018-11-29T08:11:55.488Z,8.10
2018-11-29T08:14:23.115Z,8.10
2018-11-29T08:16:50.724Z,8.10
2018-11-29T08:19:18.280Z,8.20
2018-11-29T08:21:46.379Z,8.30
2018-11-29T08:24:15.539Z,8.30
2018-11-29T08:26:43.704Z,8.20
2018-11-29T08:29:14.073Z,8.20
2018-11-29T08:31:41.711Z,8.30
2018-11-29T08:34:09.348Z,8.30
2018-11-29T08:36:37.931Z,8.40
2018-11-29T08:39:08.180Z,8.40
2018-11-29T08:41:35.916Z,8.40
2018-11-29T08:44:03.694Z,8.40
2018-11-29T08:46:31.280Z,8.30
2018-11-29T08:48:58.863Z,8.40
2018-11-29T08:51:26.438Z,8.40
2018-11-29T08:53:54.038Z,8.40
2018-11-29T08:56:21.806Z,8.40
2018-11-29T08:58:49.354Z,8.40
2018-11-29T09:01:16.932Z,8.40
2018-11-29T09:03:44.483Z,8.40
2018-11-29T09:06:12.079Z,8.30
2018-11-29T09:08:39.648Z,8.20
2018-11-29T09:11:07.252Z,8.40
2018-11-29T09:13:34.823Z,8.40
2018-11-29T09:16:02.399Z,8.30
2018-11-29T09:18:30.051Z,8.30
2018-11-29T09:20:57.604Z,8.30
2018-11-29T09:23:25.182Z,8.30
2018-11-29T09:25:52.756Z,8.40
2018-11-29T09:28:21.616Z,8.50
2018-11-29T09:30:49.234Z,8.40
2018-11-29T09:33:16.872Z,8.40
2018-11-29T09:35:44.467Z,8.40
2018-11-29T09:38:12.084Z,8.30
2018-11-29T09:40:39.674Z,8.40
2018-11-29T09:43:07.404Z,8.30
2018-11-29T09:45:35.007Z,8.40
2018-11-29T09:48:02.620Z,8.40
2018-11-29T09:50:30.271Z,8.30
2018-11-29T09:52:57.876Z,8.40
2018-11-29T09:55:25.480Z,8.40
2018-11-29T09:57:53.096Z,8.30
2018-11-29T10:00:28.093Z,8.30
2018-11-29T10:02:54.952Z,8.30
2018-11-29T10:05:22.565Z,8.40
2018-11-29T10:07:50.183Z,8.30
2018-11-29T10:10:17.764Z,8.30
2018-11-29T10:12:45.410Z,8.40
2018-11-29T10:15:13.636Z,8.40
2018-11-29T10:17:41.249Z,8.50
2018-11-29T10:20:11.020Z,8.40
2018-11-29T10:22:39.016Z,8.30
2018-11-29T10:25:08.236Z,8.30
2018-11-29T10:27:35.871Z,8.30
2018-11-29T10:30:11.871Z,8.20
2018-11-29T10:32:39.479Z,8.30
2018-11-29T10:35:07.759Z,8.40
2018-11-29T10:37:35.360Z,8.30
2018-11-29T10:40:04.575Z,8.20
2018-11-29T10:42:32.316Z,8.20
2018-11-29T10:44:59.904Z,8.10
2018-11-29T10:47:27.636Z,8.10
2018-11-29T10:49:55.227Z,8.10
2018-11-29T10:52:22.844Z,8.20
2018-11-29T10:54:50.424Z,8.20
2018-11-29T10:57:18.955Z,8.10
2018-11-29T10:59:46.551Z,8.10
2018-11-29T11:02:18.705Z,8.10
2018-11-29T11:04:46.360Z,8.10
2018-11-29T11:07:13.963Z,8.20
2018-11-29T11:09:41.583Z,8.10
2018-11-29T11:12:09.187Z,8.20
2018-11-29T11:14:36.942Z,8.20
2018-11-29T11:17:08.535Z,8.10
2018-11-29T11:19:36.139Z,8.10
2018-11-29T11:22:03.871Z,8.10
2018-11-29T11:24:31.476Z,8.10
2018-11-29T11:26:59.139Z,8.00
2018-11-29T11:29:26.792Z,8.00
2018-11-29T11:31:54.385Z,8.00
2018-11-29T11:34:21.995Z,8.10
2018-11-29T11:36:49.592Z,8.10
2018-11-29T11:39:17.223Z,8.10
2018-11-29T11:41:44.816Z,8.10
2018-11-29T11:44:12.428Z,8.20
2018-11-29T11:46:40.014Z,8.20
2018-11-29T11:49:07.624Z,8.30
2018-11-29T11:51:35.228Z,8.30
2018-11-29T11:54:02.879Z,8.40
2018-11-29T11:56:34.327Z,8.40
2018-11-29T11:59:01.931Z,8.40
2018-11-29T12:01:33.311Z,8.50
2018-11-29T12:04:00.944Z,8.50
2018-11-29T12:06:28.760Z,8.50
2018-11-29T12:08:56.379Z,8.50
2018-11-29T12:11:24.775Z,8.50
2018-11-29T12:13:52.396Z,8.40
2018-11-29T12:16:19.991Z,8.40
2018-11-29T12:18:47.596Z,8.40
2018-11-29T12:21:15.180Z,8.40
2018-11-29T12:23:42.791Z,8.40
2018-11-29T12:26:10.391Z,8.40
2018-11-29T12:28:38.920Z,8.40
2018-11-29T12:31:06.612Z,8.40
2018-11-29T12:33:34.224Z,8.50
2018-11-29T12:36:01.816Z,8.50
2018-11-29T12:38:29.444Z,8.50
2018-11-29T12:40:57.071Z,8.60
2018-11-29T12:43:24.715Z,8.60
2018-11-29T12:45:52.308Z,8.60
2018-11-29T12:48:19.940Z,8.60
2018-11-29T12:50:47.533Z,8.60
2018-11-29T12:53:15.166Z,8.70
2018-11-29T12:55:43.844Z,8.60
2018-11-29T12:58:11.639Z,8.70
2018-11-29T13:00:39.416Z,8.70
2018-11-29T13:05:36.656Z,8.50
2018-11-29T13:08:07.855Z,8.50
2018-11-29T13:10:35.484Z,8.40
2018-11-29T13:13:03.336Z,8.40
2018-11-29T13:15:32.919Z,8.30
2018-11-29T13:18:02.052Z,8.40
2018-11-29T13:20:32.537Z,8.30
2018-11-29T13:22:57.435Z,8.30
2018-11-29T13:25:26.028Z,8.30
2018-11-29T13:27:53.644Z,8.30
2018-11-29T13:30:22.002Z,8.30
2018-11-29T13:32:50.568Z,8.40
2018-11-29T13:35:23.072Z,8.50
2018-11-29T13:37:54.673Z,8.60
2018-11-29T13:40:22.428Z,8.60
2018-11-29T13:42:51.210Z,8.50
2018-11-29T13:45:18.838Z,8.50
2018-11-29T13:47:46.508Z,8.50
2018-11-29T13:50:14.942Z,8.60
2018-11-29T13:52:42.878Z,8.60
2018-11-29T13:55:11.427Z,8.50
2018-11-29T13:57:39.376Z,8.50
2018-11-29T14:00:18.643Z,8.50
2018-11-29T14:02:51.968Z,8.40
2018-11-29T14:05:19.587Z,8.40
2018-11-29T14:07:47.198Z,8.40
2018-11-29T14:10:16.712Z,8.40
2018-11-29T14:12:44.984Z,8.40
2018-11-29T14:15:17.892Z,8.40
2018-11-29T14:17:46.496Z,8.50
2018-11-29T14:20:14.292Z,8.50
2018-11-29T14:22:42.751Z,8.60
2018-11-29T14:25:12.250Z,8.60
2018-11-29T14:27:40.411Z,8.70
2018-11-29T14:30:38.735Z,8.80
2018-11-29T14:33:07.283Z,8.70
2018-11-29T14:35:34.942Z,8.70
2018-11-29T14:38:06.421Z,8.70
2018-11-29T14:40:34.884Z,8.70
2018-11-29T14:43:02.479Z,8.60
2018-11-29T14:45:30.119Z,8.60
2018-11-29T14:47:57.716Z,8.60
2018-11-29T14:50:38.136Z,8.60
2018-11-29T14:53:07.612Z,8.60
2018-11-29T14:55:36.705Z,8.60
2018-11-29T14:58:04.979Z,8.60
2018-11-29T15:00:32.719Z,8.60
2018-11-29T15:03:01.658Z,8.60
2018-11-29T15:05:30.487Z,8.50
2018-11-29T15:07:58.101Z,8.50
2018-11-29T15:10:29.492Z,8.50
2018-11-29T15:12:57.084Z,8.60
2018-11-29T15:15:25.169Z,8.60
2018-11-29T15:17:53.360Z,8.60
2018-11-29T15:20:24.136Z,8.60
2018-11-29T15:22:51.707Z,8.60
2018-11-29T15:25:19.331Z,8.70
2018-11-29T15:27:46.965Z,8.70
2018-11-29T15:30:15.820Z,8.80
2018-11-29T15:32:43.455Z,8.90
2018-11-29T15:35:11.185Z,9.00
2018-11-29T15:37:38.781Z,9.00
2018-11-29T15:40:08.292Z,9.10
2018-11-29T15:42:35.871Z,9.10
2018-11-29T15:45:03.889Z,9.10
2018-11-29T15:47:31.572Z,9.20
2018-11-29T15:49:59.172Z,9.20
2018-11-29T15:52:29.575Z,9.20
2018-11-29T15:54:57.198Z,9.20
2018-11-29T15:57:24.861Z,9.20
2018-11-29T15:59:52.498Z,9.20
2018-11-29T16:02:20.079Z,9.10
2018-11-29T16:04:47.671Z,9.10
2018-11-29T16:07:19.128Z,9.10
2018-11-29T16:09:46.824Z,9.10
2018-11-29T16:12:14.727Z,9.20
2018-11-29T16:14:43.507Z,9.30
2018-11-29T16:17:10.167Z,9.30
2018-11-29T16:19:38.480Z,9.30
2018-11-29T16:22:06.223Z,9.40
2018-11-29T16:24:33.868Z,9.40
2018-11-29T16:27:01.570Z,9.40
2018-11-29T16:29:29.232Z,9.40
2018-11-29T16:31:56.879Z,9.40
2018-11-29T16:34:28.641Z,9.40
2018-11-29T16:36:59.637Z,9.40
2018-11-29T16:39:27.267Z,9.40
2018-11-29T16:41:55.071Z,9.50
2018-11-29T16:44:23.031Z,9.50
2018-11-29T16:46:50.789Z,9.50
2018-11-29T16:49:18.440Z,9.50
2018-11-29T16:51:46.079Z,9.50
2018-11-29T16:54:14.476Z,9.50
2018-11-29T16:56:42.088Z,9.60
2018-11-29T16:59:09.733Z,9.50
2018-11-29T17:01:38.463Z,9.50
2018-11-29T17:04:07.967Z,9.40
2018-11-29T17:06:35.598Z,9.40
2018-11-29T17:09:05.216Z,9.40
2018-11-29T17:11:33.115Z,9.40
2018-11-29T17:14:00.878Z,9.50
2018-11-29T17:16:28.484Z,9.50
2018-11-29T17:18:57.007Z,9.50
2018-11-29T17:21:24.611Z,9.50
2018-11-29T17:23:52.342Z,9.50
2018-11-29T17:26:20.079Z,9.40
2018-11-29T17:28:47.680Z,9.40
2018-11-29T17:31:15.291Z,9.40
2018-11-29T17:33:44.019Z,9.40
2018-11-29T17:36:11.928Z,9.30
2018-11-29T17:38:39.584Z,9.20
2018-11-29T17:41:07.263Z,9.20
2018-11-29T17:43:35.071Z,9.10
2018-11-29T17:46:06.606Z,9.00
2018-11-29T17:48:34.203Z,8.90
2018-11-29T17:51:01.836Z,8.80
2018-11-29T17:53:29.445Z,8.70
2018-11-29T17:55:57.016Z,8.70
2018-11-29T17:58:24.667Z,8.80
2018-11-29T18:00:52.307Z,8.90
2018-11-29T18:03:20.884Z,9.00
2018-11-29T18:05:48.496Z,8.90
2018-11-29T18:08:16.135Z,9.00
2018-11-29T18:10:43.990Z,9.00
2018-11-29T18:13:17.846Z,9.00
2018-11-29T18:15:45.631Z,9.00
2018-11-29T18:18:13.278Z,8.90
2018-11-29T18:20:41.048Z,8.90
2018-11-29T18:23:09.223Z,8.80
2018-11-29T18:25:36.812Z,8.80
2018-11-29T18:28:05.111Z,8.80
2018-11-29T18:30:32.720Z,8.80
2018-11-29T18:33:00.446Z,8.80
2018-11-29T18:35:28.150Z,8.80
2018-11-29T18:37:58.615Z,8.70
2018-11-29T18:40:26.230Z,8.70
2018-11-29T18:42:57.142Z,8.70
2018-11-29T18:45:24.818Z,8.70
2018-11-29T18:47:56.350Z,8.80
2018-11-29T18:50:25.092Z,8.70
2018-11-29T18:52:53.495Z,8.80
2018-11-29T18:55:22.903Z,8.80
2018-11-29T18:57:50.570Z,8.80
2018-11-29T19:00:21.115Z,8.80
2018-11-29T19:02:49.020Z,8.80
2018-11-29T19:05:16.684Z,8.80
2018-11-29T19:07:44.450Z,8.80
2018-11-29T19:10:13.943Z,8.80
2018-11-29T19:12:45.058Z,8.70
2018-11-29T19:15:12.956Z,8.70
2018-11-29T19:17:40.667Z,8.60
2018-11-29T19:20:09.900Z,8.60
2018-11-29T19:22:37.503Z,8.60
2018-11-29T19:25:07.360Z,8.70
2018-11-29T19:27:34.931Z,8.60
2018-11-29T19:30:04.431Z,8.60
2018-11-29T19:32:30.380Z,8.70
2018-11-29T19:34:58.554Z,8.80
2018-11-29T19:37:26.168Z,8.80
2018-11-29T19:39:53.943Z,8.80
2018-11-29T19:42:21.795Z,8.80
2018-11-29T19:44:49.474Z,9.00
2018-11-29T19:47:17.575Z,9.10
2018-11-29T19:49:45.930Z,9.10
2018-11-29T19:52:13.730Z,9.10
2018-11-29T19:54:41.504Z,9.20
2018-11-29T19:57:09.179Z,9.20
2018-11-29T19:59:36.991Z,9.20
2018-11-29T20:02:04.744Z,9.20
2018-11-29T20:04:32.395Z,9.20
2018-11-29T20:06:59.999Z,9.20
2018-11-29T20:09:27.683Z,9.20
2018-11-29T20:11:55.388Z,9.20
2018-11-29T20:14:23.041Z,9.20
2018-11-29T20:16:50.683Z,9.10
2018-11-29T20:19:19.179Z,9.10
2018-11-29T20:21:46.796Z,9.10
2018-11-29T20:24:14.491Z,9.20
2018-11-29T20:26:42.139Z,9.20
2018-11-29T20:29:09.727Z,9.20
2018-11-29T20:31:38.183Z,9.30
2018-11-29T20:34:05.817Z,9.30
2018-11-29T20:36:33.480Z,9.30
2018-11-29T20:39:01.071Z,9.30
2018-11-29T20:41:28.791Z,9.30
2018-11-29T20:43:56.351Z,9.40
2018-11-29T20:46:23.959Z,9.50
2018-11-29T20:48:51.546Z,9.50
2018-11-29T20:51:19.277Z,9.60
2018-11-29T20:53:46.914Z,9.60
2018-11-29T20:56:14.910Z,9.70
2018-11-29T20:58:42.633Z,9.70
2018-11-29T21:01:10.287Z,9.70
2018-11-29T21:03:38.025Z,9.70
2018-11-29T21:06:07.828Z,9.70
2018-11-29T21:08:36.039Z,9.70
2018-11-29T21:11:03.663Z,9.70
2018-11-29T21:13:31.251Z,9.70
2018-11-29T21:15:58.933Z,9.70
2018-11-29T21:18:26.597Z,9.70
2018-11-29T21:20:54.411Z,9.70
2018-11-29T21:23:22.103Z,9.60
2018-11-29T21:25:49.848Z,9.60
2018-11-29T21:28:17.444Z,9.60
2018-11-29T21:30:45.328Z,9.60
2018-11-29T21:33:13.032Z,9.60
2018-11-29T21:35:40.736Z,9.70
2018-11-29T21:38:17.579Z,9.60
2018-11-29T21:40:50.039Z,9.70
2018-11-29T21:43:17.811Z,9.70
2018-11-29T21:45:45.670Z,9.80
2018-11-29T21:48:17.219Z,9.90
2018-11-29T21:50:45.944Z,10.00
2018-11-29T21:53:13.555Z,10.10
2018-11-29T21:55:41.193Z,10.20
2018-11-29T21:58:08.824Z,10.30
2018-11-29T22:00:38.316Z,10.40
2018-11-29T22:03:05.985Z,10.40
2018-11-29T22:05:33.656Z,10.40
2018-11-29T22:08:01.283Z,10.40
2018-11-29T22:10:28.888Z,10.50
2018-11-29T22:12:56.524Z,10.50
2018-11-29T22:15:24.173Z,10.40
2018-11-29T22:18:14.529Z,10.50
2018-11-29T22:20:42.150Z,10.40
2018-11-29T22:23:09.803Z,10.40
2018-11-29T22:25:37.391Z,10.40
2018-11-29T22:28:06.491Z,10.50
2018-11-29T22:30:34.104Z,10.40
2018-11-29T22:33:01.867Z,10.40
2018-11-29T22:35:29.503Z,10.40
2018-11-29T22:37:57.164Z,10.50
2018-11-29T22:40:25.908Z,10.50
2018-11-29T22:42:53.594Z,10.40
2018-11-29T22:45:21.188Z,10.50
2018-11-29T22:47:48.820Z,10.50
2018-11-29T22:50:16.946Z,10.50
2018-11-29T22:52:44.959Z,10.60
2018-11-29T22:55:12.575Z,10.70
2018-11-29T22:57:40.188Z,10.70
2018-11-29T23:00:11.424Z,10.70
2018-11-29T23:02:39.460Z,10.70
2018-11-29T23:05:07.796Z,10.70
2018-11-29T23:07:35.859Z,10.80
2018-11-29T23:10:04.183Z,10.80
2018-11-29T23:12:32.308Z,10.80
2018-11-29T23:14:59.897Z,10.90
2018-11-29T23:17:27.491Z,10.80
2018-11-29T23:19:55.086Z,10.80
2018-11-29T23:22:23.239Z,10.90
2018-11-29T23:24:50.828Z,10.90
2018-11-29T23:27:18.456Z,10.90
2018-11-29T23:29:46.219Z,10.90
2018-11-29T23:32:13.831Z,10.90
2018-11-29T23:34:41.516Z,11.00
2018-11-29T23:37:09.560Z,11.00
2018-11-29T23:39:37.192Z,11.00
2018-11-29T23:42:05.604Z,11.00
2018-11-29T23:44:33.189Z,11.00
2018-11-29T23:47:01.771Z,11.00
2018-11-29T23:49:29.407Z,11.00
2018-11-29T23:51:57.140Z,11.00
2018-11-29T23:54:24.832Z,11.00
2018-11-29T23:56:52.483Z,10.90
2018-11-29T23:59:20.143Z,10.90
